createdAt,value
2023-04-08T00:01:07.050Z,14.60
2023-04-08T00:03:12.061Z,10.45
2023-04-08T00:05:19.774Z,11.43
2023-04-08T00:07:24.667Z,10.65
2023-04-08T00:09:29.581Z,14.88
2023-04-08T00:11:34.928Z,14.20
2023-04-08T00:15:44.693Z,12.20
2023-04-08T00:17:49.601Z,12.70
2023-04-08T00:19:55.547Z,12.85
2023-04-08T00:22:03.293Z,12.60
2023-04-08T00:24:09.015Z,12.95
2023-04-08T00:26:13.889Z,13.40
2023-04-08T00:28:19.979Z,10.82
2023-04-08T00:30:24.880Z,11.55
2023-04-08T00:32:30.568Z,9.48
2023-04-08T00:34:35.890Z,10.63
2023-04-08T00:36:40.913Z,11.35
2023-04-08T00:38:49.248Z,13.25
2023-04-08T00:40:54.412Z,12.15
2023-04-08T00:43:00.175Z,11.00
2023-04-08T00:45:05.050Z,10.57
2023-04-08T00:47:10.014Z,11.25
2023-04-08T00:49:14.978Z,11.95
2023-04-08T00:51:20.008Z,13.90
2023-04-08T00:53:25.765Z,13.10
2023-04-08T00:55:33.614Z,12.27
2023-04-08T00:57:39.392Z,15.40
2023-04-08T00:59:45.469Z,11.75
2023-04-08T01:01:57.935Z,12.05
2023-04-08T01:04:11.736Z,14.15
2023-04-08T01:06:22.310Z,13.68
2023-04-08T01:08:30.149Z,13.05
2023-04-08T01:10:43.389Z,12.65
2023-04-08T01:12:54.772Z,13.38
2023-04-08T01:15:05.769Z,12.52
2023-04-08T01:17:12.541Z,12.25
2023-04-08T01:19:25.839Z,13.30
2023-04-08T01:21:31.805Z,11.23
2023-04-08T01:23:44.000Z,13.13
2023-04-08T01:25:53.253Z,12.00
2023-04-08T01:27:59.460Z,11.27
2023-04-08T01:30:06.621Z,14.13
2023-04-08T01:32:12.516Z,14.70
2023-04-08T01:34:19.485Z,11.88
2023-04-08T01:36:25.975Z,11.55
2023-04-08T01:38:32.296Z,12.07
2023-04-08T01:40:38.429Z,15.35
2023-04-08T01:42:47.844Z,15.55
2023-04-08T01:44:55.173Z,13.23
2023-04-08T01:47:00.865Z,14.48
2023-04-08T01:49:06.604Z,15.35
2023-04-08T01:51:15.493Z,13.18
2023-04-08T01:53:20.761Z,14.25
2023-04-08T01:55:27.534Z,14.38
2023-04-08T01:57:36.730Z,12.98
2023-04-08T01:59:45.686Z,15.02
2023-04-08T02:01:53.324Z,15.07
2023-04-08T02:04:01.547Z,13.85
2023-04-08T02:06:06.625Z,17.33
2023-04-08T02:08:11.655Z,17.42
2023-04-08T02:10:16.675Z,15.25
2023-04-08T02:12:22.119Z,15.07
2023-04-08T02:14:27.293Z,15.23
2023-04-08T02:16:45.706Z,16.45
2023-04-08T02:19:01.317Z,15.00
2023-04-08T02:21:12.953Z,14.73
2023-04-08T02:23:22.331Z,16.52
2023-04-08T02:25:28.554Z,16.33
2023-04-08T02:27:37.732Z,13.27
2023-04-08T02:29:44.230Z,12.88
2023-04-08T02:31:54.195Z,12.73
2023-04-08T02:34:02.176Z,11.20
2023-04-08T02:36:09.970Z,13.05
2023-04-08T02:38:15.166Z,14.13
2023-04-08T02:40:29.316Z,11.57
2023-04-08T02:42:34.919Z,13.23
2023-04-08T02:44:39.866Z,14.43
2023-04-08T02:46:44.822Z,11.05
2023-04-08T02:48:52.753Z,15.25
2023-04-08T02:50:57.662Z,11.45
2023-04-08T02:53:02.565Z,16.90
2023-04-08T02:55:12.671Z,11.77
2023-04-08T02:57:17.729Z,13.68
2023-04-08T02:59:22.699Z,12.43
2023-04-08T03:01:27.863Z,11.30
2023-04-08T03:05:40.284Z,11.48
2023-04-08T03:07:45.939Z,14.73
2023-04-08T03:09:50.839Z,11.60
2023-04-08T03:11:56.015Z,11.93
2023-04-08T03:14:01.120Z,13.50
2023-04-08T03:16:06.145Z,11.65
2023-04-08T03:18:11.062Z,12.63
2023-04-08T03:20:16.025Z,11.48
2023-04-08T03:22:24.561Z,11.23
2023-04-08T03:24:29.481Z,10.88
2023-04-08T03:26:34.428Z,11.40
2023-04-08T03:28:39.557Z,14.10
2023-04-08T03:32:49.396Z,11.90
2023-04-08T03:34:54.400Z,12.82
2023-04-08T03:36:59.282Z,11.73
2023-04-08T03:39:06.910Z,12.75
2023-04-08T03:41:11.872Z,12.75
2023-04-08T03:43:16.951Z,10.70
2023-04-08T03:45:22.183Z,13.88
2023-04-08T03:49:31.845Z,13.18
2023-04-08T03:51:36.709Z,12.07
2023-04-08T03:53:41.615Z,13.52
2023-04-08T03:55:49.183Z,11.38
2023-04-08T03:57:54.346Z,14.20
2023-04-08T03:59:59.394Z,11.98
2023-04-08T04:02:04.423Z,12.02
2023-04-08T04:04:09.774Z,12.32
2023-04-08T04:06:14.926Z,11.35
2023-04-08T04:08:19.900Z,12.07
2023-04-08T04:10:24.777Z,15.05
2023-04-08T04:12:32.715Z,11.88
2023-04-08T04:14:37.635Z,11.88
2023-04-08T04:16:42.683Z,12.88
2023-04-08T04:18:47.685Z,12.18
2023-04-08T04:20:52.706Z,14.30
2023-04-08T04:22:57.630Z,13.23
2023-04-08T04:25:02.570Z,15.02
2023-04-08T04:27:07.607Z,16.23
2023-04-08T04:29:15.071Z,16.42
2023-04-08T04:31:23.726Z,14.95
2023-04-08T04:33:28.819Z,14.50
2023-04-08T04:35:33.753Z,16.40
2023-04-08T04:37:38.752Z,14.32
2023-04-08T04:39:43.675Z,15.07
2023-04-08T04:41:49.464Z,14.02
2023-04-08T04:43:54.447Z,13.20
2023-04-08T04:46:04.002Z,14.05
2023-04-08T04:48:09.296Z,14.23
2023-04-08T04:52:19.102Z,13.02
2023-04-08T04:54:23.993Z,11.90
2023-04-08T04:58:34.244Z,12.35
2023-04-08T05:00:39.169Z,13.00
2023-04-08T05:02:46.819Z,12.30
2023-04-08T05:04:53.871Z,13.30
2023-04-08T05:06:58.910Z,12.90
2023-04-08T05:09:03.856Z,14.85
2023-04-08T05:11:12.795Z,16.10
2023-04-08T05:13:17.783Z,12.50
2023-04-08T05:15:23.088Z,12.75
2023-04-08T05:17:28.113Z,16.98
2023-04-08T05:19:35.718Z,15.85
2023-04-08T05:21:40.664Z,17.05
2023-04-08T05:23:45.630Z,13.45
2023-04-08T05:25:50.620Z,14.25
2023-04-08T05:27:56.281Z,14.45
2023-04-08T05:30:01.254Z,16.20
2023-04-08T05:32:06.325Z,15.20
2023-04-08T05:34:11.450Z,16.48
2023-04-08T05:36:19.131Z,16.65
2023-04-08T05:38:23.972Z,14.93
2023-04-08T05:40:29.366Z,14.15
2023-04-08T05:42:35.088Z,15.32
2023-04-08T05:44:41.569Z,13.85
2023-04-08T05:46:46.552Z,14.40
2023-04-08T05:48:51.874Z,13.32
2023-04-08T05:50:57.277Z,12.50
2023-04-08T05:55:13.286Z,12.75
2023-04-08T05:57:18.257Z,16.30
2023-04-08T05:59:23.140Z,14.80
2023-04-08T06:01:28.312Z,13.20
2023-04-08T06:03:34.084Z,16.50
2023-04-08T06:05:39.078Z,14.60
2023-04-08T06:07:44.131Z,14.23
2023-04-08T06:09:51.643Z,14.73
2023-04-08T06:11:57.656Z,15.25
2023-04-08T06:14:02.579Z,15.30
2023-04-08T06:16:14.267Z,15.85
2023-04-08T06:18:19.331Z,15.75
2023-04-08T06:20:24.466Z,15.73
2023-04-08T06:22:29.743Z,15.23
2023-04-08T06:24:35.174Z,13.95
2023-04-08T06:26:42.816Z,12.07
2023-04-08T06:28:47.818Z,13.25
2023-04-08T06:30:53.033Z,13.68
2023-04-08T06:35:02.891Z,14.15
2023-04-08T06:37:10.806Z,13.23
2023-04-08T06:39:17.218Z,11.90
2023-04-08T06:41:22.150Z,16.90
2023-04-08T06:43:30.552Z,10.98
2023-04-08T06:45:35.824Z,11.23
2023-04-08T06:49:46.790Z,15.55
2023-04-08T06:51:52.242Z,12.00
2023-04-08T06:53:57.593Z,10.50
2023-04-08T06:58:07.206Z,14.13
2023-04-08T07:00:15.839Z,12.63
2023-04-08T07:02:22.405Z,9.30
2023-04-08T07:04:27.575Z,8.50
2023-04-08T07:06:32.603Z,8.95
2023-04-08T07:08:37.693Z,8.82
2023-04-08T07:10:42.794Z,11.93
2023-04-08T07:12:47.677Z,9.38
2023-04-08T07:14:53.361Z,9.93
2023-04-08T07:17:00.943Z,9.77
2023-04-08T07:19:05.905Z,8.85
2023-04-08T07:21:10.926Z,9.88
2023-04-08T07:23:15.933Z,10.30
2023-04-08T07:25:21.219Z,10.57
2023-04-08T07:27:26.365Z,9.35
2023-04-08T07:29:31.789Z,10.60
2023-04-08T07:31:36.792Z,8.50
2023-04-08T07:33:44.429Z,11.50
2023-04-08T07:35:49.493Z,10.85
2023-04-08T07:37:55.252Z,10.18
2023-04-08T07:40:00.555Z,10.68
2023-04-08T07:42:05.539Z,12.68
2023-04-08T07:44:10.645Z,11.70
2023-04-08T07:46:15.776Z,11.48
2023-04-08T07:50:28.255Z,11.75
2023-04-08T07:52:33.382Z,9.98
2023-04-08T07:56:44.739Z,11.77
2023-04-08T07:58:52.880Z,10.30
2023-04-08T08:00:59.756Z,10.13
2023-04-08T08:03:04.943Z,9.98
2023-04-08T08:05:11.164Z,10.90
2023-04-08T08:07:18.753Z,9.07
2023-04-08T08:09:23.683Z,10.65
2023-04-08T08:11:30.016Z,9.95
2023-04-08T08:13:35.738Z,10.57
2023-04-08T08:15:40.774Z,9.82
2023-04-08T08:19:53.527Z,9.52
2023-04-08T08:21:58.462Z,10.32
2023-04-08T08:24:06.656Z,10.15
2023-04-08T08:26:12.769Z,7.60
2023-04-08T08:28:18.140Z,7.38
2023-04-08T08:30:23.050Z,10.90
2023-04-08T08:32:28.014Z,9.25
2023-04-08T08:34:33.712Z,9.20
2023-04-08T08:36:38.723Z,8.82
2023-04-08T08:38:43.651Z,8.48
2023-04-08T08:40:57.862Z,7.55
2023-04-08T08:43:03.189Z,10.20
2023-04-08T08:47:13.609Z,7.43
2023-04-08T08:49:19.148Z,9.63
2023-04-08T08:51:24.626Z,7.15
2023-04-08T08:53:35.734Z,9.10
2023-04-08T08:56:05.807Z,8.48
2023-04-08T08:58:10.377Z,7.82
2023-04-08T09:00:16.759Z,10.25
2023-04-08T09:02:30.164Z,8.73
2023-04-08T09:04:35.366Z,12.05
2023-04-08T09:06:40.560Z,10.85
2023-04-08T09:10:50.696Z,9.40
2023-04-08T09:12:59.219Z,8.50
2023-04-08T09:15:11.888Z,10.02
2023-04-08T09:17:17.289Z,8.85
2023-04-08T09:19:22.781Z,9.02
2023-04-08T09:21:28.106Z,11.38
2023-04-08T09:25:47.643Z,11.13
2023-04-08T09:27:53.206Z,10.75
2023-04-08T09:30:19.251Z,9.93
2023-04-08T09:32:24.309Z,11.30
2023-04-08T09:34:32.693Z,8.25
2023-04-08T09:36:37.604Z,8.25
2023-04-08T09:38:42.701Z,8.35
2023-04-08T09:40:48.246Z,10.65
2023-04-08T09:42:57.168Z,8.88
2023-04-08T09:45:04.642Z,8.65
2023-04-08T09:47:21.875Z,7.55
2023-04-08T09:49:31.502Z,8.98
2023-04-08T09:51:43.371Z,9.85
2023-04-08T09:53:51.622Z,7.53
2023-04-08T09:56:00.006Z,8.40
2023-04-08T09:58:10.426Z,8.38
2023-04-08T10:00:17.627Z,8.85
2023-04-08T10:02:40.007Z,8.40
2023-04-08T10:04:53.234Z,9.75
2023-04-08T10:07:04.976Z,9.20
2023-04-08T10:09:10.684Z,8.38
2023-04-08T10:11:17.560Z,9.63
2023-04-08T10:13:23.344Z,9.45
2023-04-08T10:15:29.796Z,8.88
2023-04-08T10:17:37.409Z,7.88
2023-04-08T10:19:44.808Z,8.10
2023-04-08T10:21:50.689Z,8.57
2023-04-08T10:24:01.769Z,8.00
2023-04-08T10:26:36.995Z,9.02
2023-04-08T10:28:41.908Z,7.72
2023-04-08T10:30:47.675Z,7.72
2023-04-08T10:32:56.709Z,8.00
2023-04-08T10:35:01.862Z,7.78
2023-04-08T10:37:06.870Z,8.02
2023-04-08T10:39:11.932Z,9.07
2023-04-08T10:41:21.823Z,7.15
2023-04-08T10:43:27.319Z,8.10
2023-04-08T10:45:32.278Z,6.63
2023-04-08T10:47:37.174Z,7.35
2023-04-08T10:49:44.655Z,9.20
2023-04-08T10:51:50.111Z,7.90
2023-04-08T10:53:55.244Z,6.00
2023-04-08T10:56:07.552Z,6.93
2023-04-08T10:58:14.113Z,7.68
2023-04-08T11:00:22.754Z,7.60
2023-04-08T11:02:35.914Z,6.93
2023-04-08T11:04:48.631Z,7.28
2023-04-08T11:06:53.861Z,7.00
2023-04-08T11:09:00.810Z,7.05
2023-04-08T11:11:09.395Z,8.70
2023-04-08T11:13:15.039Z,8.07
2023-04-08T11:15:20.655Z,7.10
2023-04-08T11:17:25.731Z,7.57
2023-04-08T11:19:31.737Z,7.03
2023-04-08T11:21:41.240Z,6.65
2023-04-08T11:23:46.603Z,7.70
2023-04-08T11:27:57.141Z,6.60
2023-04-08T11:30:02.715Z,6.82
2023-04-08T11:32:09.133Z,7.75
2023-04-08T11:34:14.071Z,7.35
2023-04-08T11:36:21.918Z,7.40
2023-04-08T11:38:29.571Z,7.22
2023-04-08T11:40:34.508Z,6.88
2023-04-08T11:42:40.048Z,6.28
2023-04-08T11:44:45.071Z,6.32
2023-04-08T11:46:57.529Z,6.07
2023-04-08T11:49:03.758Z,6.70
2023-04-08T11:51:12.579Z,6.22
2023-04-08T11:53:22.286Z,6.75
2023-04-08T11:55:31.064Z,7.50
2023-04-08T11:57:36.589Z,8.07
2023-04-08T11:59:41.803Z,6.18
2023-04-08T12:03:59.941Z,6.15
2023-04-08T12:06:05.595Z,6.03
2023-04-08T12:08:10.723Z,5.97
2023-04-08T12:10:16.152Z,14.73
2023-04-08T12:12:26.865Z,14.18
2023-04-08T12:14:32.346Z,11.40
2023-04-08T12:16:37.460Z,6.45
2023-04-08T12:18:42.768Z,6.70
2023-04-08T12:22:52.468Z,7.40
2023-04-08T12:24:59.230Z,6.68
2023-04-08T12:27:05.270Z,6.50
2023-04-08T12:29:12.792Z,7.80
2023-04-08T12:31:20.193Z,6.30
2023-04-08T12:35:54.352Z,5.65
2023-04-08T12:37:59.366Z,4.80
2023-04-08T12:40:04.843Z,6.53
2023-04-08T12:42:09.822Z,5.15
2023-04-08T12:44:17.515Z,4.47
2023-04-08T12:46:22.931Z,7.75
2023-04-08T12:48:28.170Z,4.97
2023-04-08T12:52:37.766Z,6.50
2023-04-08T12:54:42.819Z,4.78
2023-04-08T12:56:49.013Z,4.90
2023-04-08T12:58:53.908Z,6.40
2023-04-08T13:01:01.571Z,5.80
2023-04-08T13:03:09.109Z,4.93
2023-04-08T13:05:14.134Z,4.78
2023-04-08T13:07:19.082Z,5.35
2023-04-08T13:09:24.118Z,4.90
2023-04-08T13:11:29.142Z,5.32
2023-04-08T13:13:34.328Z,4.53
2023-04-08T13:17:46.558Z,6.40
2023-04-08T13:19:52.719Z,5.00
2023-04-08T13:21:57.690Z,4.63
2023-04-08T13:24:02.640Z,5.10
2023-04-08T13:26:07.671Z,5.88
2023-04-08T13:28:12.663Z,5.45
2023-04-08T13:30:17.751Z,6.20
2023-04-08T13:32:22.755Z,4.82
2023-04-08T13:34:30.660Z,7.10
2023-04-08T13:36:35.600Z,5.32
2023-04-08T13:38:40.436Z,6.38
2023-04-08T13:40:46.638Z,7.40
2023-04-08T13:42:52.820Z,5.90
2023-04-08T13:47:02.888Z,5.40
2023-04-08T13:49:07.853Z,5.68
2023-04-08T13:51:15.345Z,5.40
2023-04-08T13:53:20.351Z,5.10
2023-04-08T13:55:25.595Z,5.88
2023-04-08T13:57:30.881Z,8.48
2023-04-08T14:01:40.870Z,5.63
2023-04-08T14:05:55.252Z,7.63
2023-04-08T14:08:02.721Z,6.10
2023-04-08T14:10:08.918Z,5.20
2023-04-08T14:12:13.902Z,3.88
2023-04-08T14:14:18.835Z,5.10
2023-04-08T14:16:23.772Z,5.32
2023-04-08T14:18:29.459Z,4.07
2023-04-08T14:20:35.693Z,4.30
2023-04-08T14:22:40.695Z,5.25
2023-04-08T14:24:48.295Z,5.03
2023-04-08T14:26:53.244Z,4.47
2023-04-08T14:28:58.408Z,5.28
2023-04-08T14:33:10.071Z,4.07
2023-04-08T14:35:15.052Z,3.47
2023-04-08T14:37:20.736Z,4.00
2023-04-08T14:39:25.690Z,3.38
2023-04-08T14:41:33.191Z,3.63
2023-04-08T14:43:38.189Z,5.72
2023-04-08T14:45:45.055Z,4.43
2023-04-08T14:47:50.174Z,5.45
2023-04-08T14:49:55.044Z,6.57
2023-04-08T14:52:00.003Z,4.65
2023-04-08T14:54:04.926Z,3.78
2023-04-08T14:56:11.541Z,3.90
2023-04-08T14:58:20.100Z,5.55
2023-04-08T15:00:25.019Z,3.47
2023-04-08T15:02:30.015Z,4.20
2023-04-08T15:04:35.138Z,3.40
2023-04-08T15:08:46.018Z,4.57
2023-04-08T15:10:50.973Z,4.82
2023-04-08T15:12:56.039Z,4.38
2023-04-08T15:15:06.353Z,4.53
2023-04-08T15:17:11.645Z,4.15
2023-04-08T15:19:18.813Z,6.55
2023-04-08T15:21:23.820Z,5.10
2023-04-08T15:23:29.519Z,5.28
2023-04-08T15:25:37.383Z,4.60
2023-04-08T15:27:45.113Z,5.13
2023-04-08T15:29:50.584Z,4.75
2023-04-08T15:31:58.145Z,6.38
2023-04-08T15:34:03.770Z,7.00
2023-04-08T15:36:09.351Z,5.00
2023-04-08T15:38:14.356Z,6.75
2023-04-08T15:40:22.470Z,5.10
2023-04-08T15:42:27.926Z,6.47
2023-04-08T15:44:35.018Z,6.35
2023-04-08T15:46:40.004Z,4.95
2023-04-08T15:48:47.561Z,5.47
2023-04-08T15:50:52.606Z,5.40
2023-04-08T15:52:57.638Z,5.78
2023-04-08T15:57:07.825Z,6.05
2023-04-08T15:59:12.771Z,5.72
2023-04-08T16:01:18.916Z,6.57
2023-04-08T16:03:24.061Z,7.45
2023-04-08T16:05:31.714Z,5.13
2023-04-08T16:07:37.610Z,5.70
2023-04-08T16:09:42.572Z,5.65
2023-04-08T16:11:47.634Z,5.15
2023-04-08T16:13:52.743Z,7.70
2023-04-08T16:15:58.423Z,8.65
2023-04-08T16:18:04.790Z,9.20
2023-04-08T16:20:10.896Z,7.13
2023-04-08T16:22:18.360Z,7.25
2023-04-08T16:24:23.270Z,7.20
2023-04-08T16:26:29.572Z,5.75
2023-04-08T16:28:34.570Z,5.75
2023-04-08T16:30:43.100Z,7.00
2023-04-08T16:32:48.854Z,4.35
2023-04-08T16:34:53.742Z,5.10
2023-04-08T16:36:58.758Z,4.20
2023-04-08T16:39:06.319Z,5.28
2023-04-08T16:41:11.269Z,3.63
2023-04-08T16:43:16.166Z,4.85
2023-04-08T16:45:21.430Z,3.80
2023-04-08T16:49:31.739Z,5.03
2023-04-08T16:51:36.704Z,5.03
2023-04-08T16:53:41.704Z,4.30
2023-04-08T16:55:49.216Z,7.00
2023-04-08T16:57:54.856Z,4.65
2023-04-08T16:59:59.715Z,5.50
2023-04-08T17:02:04.767Z,4.07
2023-04-08T17:04:10.179Z,5.40
2023-04-08T17:06:17.485Z,5.50
2023-04-08T17:08:23.960Z,5.30
2023-04-08T17:10:29.259Z,4.90
2023-04-08T17:12:36.739Z,6.70
2023-04-08T17:14:41.627Z,9.13
2023-04-08T17:16:46.704Z,7.10
2023-04-08T17:18:53.008Z,5.05
2023-04-08T17:20:57.864Z,6.15
2023-04-08T17:23:06.385Z,5.90
2023-04-08T17:25:12.057Z,6.57
2023-04-08T17:27:17.010Z,6.85
2023-04-08T17:29:24.493Z,5.60
2023-04-08T17:31:29.597Z,5.75
2023-04-08T17:33:34.590Z,6.30
2023-04-08T17:35:46.391Z,5.80
2023-04-08T17:37:51.347Z,5.65
2023-04-08T17:39:56.288Z,5.25
2023-04-08T17:42:02.249Z,6.70
2023-04-08T17:44:07.588Z,5.57
2023-04-08T17:48:20.226Z,6.47
2023-04-08T17:50:25.090Z,7.05
2023-04-08T17:52:30.062Z,6.82
2023-04-08T17:54:35.044Z,6.63
2023-04-08T17:56:40.096Z,6.25
2023-04-08T17:58:45.015Z,6.38
2023-04-08T18:00:50.364Z,8.00
2023-04-08T18:02:58.030Z,8.48
2023-04-08T18:05:04.103Z,7.53
2023-04-08T18:07:09.246Z,8.80
2023-04-08T18:09:14.142Z,9.60
2023-04-08T18:11:19.895Z,10.07
2023-04-08T18:13:24.772Z,10.35
2023-04-08T18:15:29.642Z,11.00
2023-04-08T18:17:34.508Z,12.75
2023-04-08T18:19:42.324Z,14.20
2023-04-08T18:21:48.831Z,12.07
2023-04-08T18:23:53.941Z,11.70
2023-04-08T18:25:59.076Z,10.07
2023-04-08T18:28:04.096Z,9.68
2023-04-08T18:30:11.825Z,9.32
2023-04-08T18:32:16.868Z,10.75
2023-04-08T18:34:23.104Z,9.60
2023-04-08T18:36:30.574Z,10.10
2023-04-08T18:38:36.350Z,11.00
2023-04-08T18:40:42.320Z,9.40
2023-04-08T18:42:47.255Z,10.43
2023-04-08T18:44:53.638Z,10.02
2023-04-08T18:46:59.087Z,12.02
2023-04-08T18:49:04.018Z,10.32
2023-04-08T18:51:08.907Z,12.65
2023-04-08T18:53:16.636Z,11.77
2023-04-08T18:55:22.205Z,12.57
2023-04-08T18:57:27.254Z,12.70
2023-04-08T18:59:35.435Z,11.27
2023-04-08T19:01:41.894Z,12.00
2023-04-08T19:03:47.011Z,15.77
2023-04-08T19:05:52.067Z,13.32
2023-04-08T19:07:57.868Z,12.95
2023-04-08T19:10:05.570Z,13.75
2023-04-08T19:12:10.477Z,12.88
2023-04-08T19:14:15.765Z,14.82
2023-04-08T19:16:20.751Z,14.18
2023-04-08T19:18:26.267Z,13.15
2023-04-08T19:20:31.203Z,14.27
2023-04-08T19:22:36.114Z,15.68
2023-04-08T19:24:41.186Z,12.18
2023-04-08T19:26:49.595Z,16.17
2023-04-08T19:28:54.694Z,15.57
2023-04-08T19:30:59.604Z,15.77
2023-04-08T19:33:04.612Z,14.82
2023-04-08T19:35:10.856Z,15.43
2023-04-08T19:37:15.827Z,16.20
2023-04-08T19:39:21.200Z,14.40
2023-04-08T19:41:26.461Z,15.25
2023-04-08T19:43:34.347Z,15.88
2023-04-08T19:45:39.326Z,16.90
2023-04-08T19:47:47.234Z,15.45
2023-04-08T19:49:52.757Z,16.25
2023-04-08T19:51:58.680Z,15.52
2023-04-08T19:54:03.569Z,15.55
2023-04-08T19:56:08.688Z,16.55
2023-04-08T19:58:13.606Z,15.80
2023-04-08T20:00:21.460Z,17.42
2023-04-08T20:02:26.819Z,14.93
2023-04-08T20:04:32.196Z,13.70
2023-04-08T20:06:37.621Z,16.00
2023-04-08T20:10:49.283Z,17.20
2023-04-08T20:12:55.320Z,18.55
2023-04-08T20:15:00.208Z,16.73
2023-04-08T20:17:07.808Z,17.88
2023-04-08T20:19:13.213Z,17.38
2023-04-08T20:23:24.400Z,14.35
2023-04-08T20:25:29.317Z,16.63
2023-04-08T20:27:35.902Z,15.88
2023-04-08T20:29:42.155Z,14.98
2023-04-08T20:31:49.921Z,17.63
2023-04-08T20:33:57.610Z,17.58
2023-04-08T20:36:02.590Z,15.57
2023-04-08T20:38:08.213Z,16.98
2023-04-08T20:40:18.104Z,17.92
2023-04-08T20:42:23.993Z,14.35
2023-04-08T20:44:29.518Z,15.48
2023-04-08T20:46:35.321Z,16.42
2023-04-08T20:48:40.903Z,14.65
2023-04-08T20:50:50.768Z,15.32
2023-04-08T20:52:55.773Z,14.80
2023-04-08T20:55:00.756Z,14.55
2023-04-08T20:57:05.701Z,15.07
2023-04-08T20:59:10.843Z,16.40
2023-04-08T21:01:16.064Z,14.80
2023-04-08T21:05:25.832Z,15.63
2023-04-08T21:07:33.348Z,15.10
2023-04-08T21:09:38.283Z,13.38
2023-04-08T21:11:43.134Z,15.23
2023-04-08T21:13:49.039Z,13.45
2023-04-08T21:15:54.351Z,12.15
2023-04-08T21:17:59.326Z,14.30
2023-04-08T21:20:04.698Z,16.33
2023-04-08T21:22:09.675Z,12.90
2023-04-08T21:24:17.154Z,13.95
2023-04-08T21:26:22.116Z,15.23
2023-04-08T21:28:27.357Z,13.98
2023-04-08T21:32:37.301Z,14.02
2023-04-08T21:36:46.941Z,14.10
2023-04-08T21:38:52.071Z,14.30
2023-04-08T21:40:59.923Z,15.60
2023-04-08T21:43:04.811Z,14.75
2023-04-08T21:45:11.025Z,14.95
2023-04-08T21:47:16.049Z,15.77
2023-04-08T21:49:20.981Z,16.60
2023-04-08T21:51:26.589Z,16.88
2023-04-08T21:53:31.737Z,14.63
2023-04-08T21:55:36.616Z,13.70
2023-04-08T21:57:44.312Z,13.95
2023-04-08T21:59:49.303Z,13.85
2023-04-08T22:01:54.236Z,13.27
2023-04-08T22:03:59.845Z,13.82
2023-04-08T22:06:04.960Z,13.68
2023-04-08T22:08:09.933Z,13.23
2023-04-08T22:10:14.947Z,14.32
2023-04-08T22:12:19.937Z,12.05
2023-04-08T22:14:27.484Z,11.75
2023-04-08T22:16:32.561Z,14.43
2023-04-08T22:18:37.523Z,14.02
2023-04-08T22:20:42.378Z,11.23
2023-04-08T22:22:47.583Z,13.00
2023-04-08T22:24:52.711Z,12.70
2023-04-08T22:26:57.780Z,12.85
2023-04-08T22:29:02.674Z,12.48
2023-04-08T22:31:12.292Z,13.20
2023-04-08T22:33:17.349Z,11.48
2023-04-08T22:35:22.358Z,12.05
2023-04-08T22:37:27.408Z,12.88
2023-04-08T22:39:32.267Z,11.30
2023-04-08T22:41:37.133Z,10.43
2023-04-08T22:43:42.040Z,12.63
2023-04-08T22:45:46.984Z,10.88
2023-04-08T22:47:54.593Z,11.05
2023-04-08T22:49:59.503Z,10.52
2023-04-08T22:52:04.531Z,11.10
2023-04-08T22:54:09.439Z,11.43
2023-04-08T22:56:14.427Z,11.95
2023-04-08T22:58:19.338Z,10.95
2023-04-08T23:00:24.612Z,11.68
2023-04-08T23:04:36.929Z,12.77
2023-04-08T23:06:41.827Z,11.23
2023-04-08T23:08:46.711Z,13.07
2023-04-08T23:10:51.608Z,12.65
2023-04-08T23:12:56.519Z,12.15
2023-04-08T23:15:01.438Z,12.43
2023-04-08T23:17:06.459Z,11.73
2023-04-08T23:19:11.647Z,14.88
2023-04-08T23:23:24.890Z,11.85
2023-04-08T23:25:29.741Z,10.20
2023-04-08T23:27:34.661Z,10.50
2023-04-08T23:29:39.531Z,12.02
2023-04-08T23:31:44.409Z,11.93
2023-04-08T23:33:49.313Z,11.40
2023-04-08T23:35:54.186Z,12.00
2023-04-08T23:38:01.705Z,10.95
2023-04-08T23:40:07.296Z,11.13
2023-04-08T23:42:12.139Z,11.05
2023-04-08T23:44:17.008Z,12.68
2023-04-08T23:46:21.942Z,10.65
2023-04-08T23:48:27.008Z,9.45
2023-04-08T23:50:31.884Z,9.30
2023-04-08T23:52:37.547Z,11.90
2023-04-08T23:54:45.074Z,12.63
2023-04-08T23:56:49.983Z,9.73
2023-04-08T23:58:55.043Z,9.68
